Main page


Airports :

Klagenfurt, Austria

Klagenfurt Airport

latitude: 46-39N, longitude: 014-20E, elevation: 448 m

Current weather observation

The report was made 35 minutes ago, at 16:50 UTC
Wind 7 kt from the East, varying between East/Northeast and Southeast
Temperature 7°C
Humidity 49%
Pressure 1004 hPa
Visibility 10 km or more
Few clouds at a height of 4500 ft

METAR: LOWK 241650Z 10007KT 070V140 9999 FEW045 07/M03 Q1004 NOSIG

Time: 18:25 (17:25 UTC)


The report was made 6 hours and 10 minutes ago, at 11:15 UTC
Forecast valid from 24 at 12 UTC to 25 at 12 UTC
Wind 8 kt from the East/Southeast
Visibility 10 km or more
Few clouds at a height of 4000 ft
Scattered clouds at a height of 6000 ft
from 24 at 16 UTC to 24 at 18 UTC
Wind 2 kt from variable directions
Scattered clouds at a height of 2500 ft
Broken clouds at a height of 4000 ft

TAF: LOWK 241115Z 2412/2512 11008KT 9999 FEW040 SCT060 TX11/2414Z TNM01/2503Z BECMG 2416/2418 VRB02KT SCT025 BKN040

Weather observations and forecasts of more than 4000 airports (METAR and TAF reports).

The available stations are represented by yellow and red dots on the map.

Hover mouse over dot to see the name of the station.

Then click to see weather observations and forecasts.

To change the map : click on the green buttons with a black cross to zoom in, on the green button with a dash to zoom out, or on the green arrows for adjacent maps.